Time;durP1;ratioP1;P1;durP2;ratioP2;P2;SDS_P1;SDS_P2;PMS_P1;PMS_P2;Temp;Humidity;BMP_temperature;BMP_pressure;BME280_temperature;BME280_humidity;BME280_pressure;Samples;Min_cycle;Max_cycle;Signal;HPM_P1;HPM_P2
2023/12/02 00:00:51;;;;;;;31.63;11.10;;;0.30;1.00;;;;;;5041937;28;20162;-84
2023/12/02 00:03:17;;;;;;;27.70;9.35;;;0.30;1.00;;;;;;5042069;28;20631;-84
2023/12/02 00:05:42;;;;;;;26.33;9.17;;;0.30;1.00;;;;;;5024075;28;20175;-84
2023/12/02 00:08:08;;;;;;;25.93;8.73;;;0.20;1.00;;;;;;5024351;28;20174;-84
2023/12/02 00:10:34;;;;;;;28.67;9.23;;;0.30;1.00;;;;;;5025097;28;20174;-84
2023/12/02 00:12:59;;;;;;;27.70;10.10;;;0.20;1.00;;;;;;5042558;28;20171;-84
2023/12/02 00:15:25;;;;;;;31.17;10.77;;;0.00;1.00;;;;;;5042439;28;20195;-84
2023/12/02 00:17:51;;;;;;;26.70;10.23;;;0.10;1.00;;;;;;5024899;28;20173;-84
2023/12/02 00:20:16;;;;;;;31.27;10.80;;;0.20;1.00;;;;;;5042604;28;20268;-84
2023/12/02 00:22:42;;;;;;;30.43;11.13;;;0.30;1.00;;;;;;5024614;28;20632;-84
2023/12/02 00:25:08;;;;;;;30.57;10.43;;;0.30;1.00;;;;;;5024924;28;20186;-84
2023/12/02 00:27:33;;;;;;;25.27;9.13;;;0.30;1.00;;;;;;5041808;28;20173;-84
2023/12/02 00:29:59;;;;;;;28.93;10.00;;;0.30;1.00;;;;;;5041747;28;20410;-84
2023/12/02 00:32:25;;;;;;;28.57;9.77;;;0.30;1.00;;;;;;5042534;28;20194;-84
2023/12/02 00:34:50;;;;;;;28.87;9.73;;;0.40;1.00;;;;;;5186621;22;20221;-84
2023/12/02 00:42:12;;;;;;;28.73;10.50;;;0.40;1.00;;;;;;5040513;28;20206;-84
2023/12/02 00:44:37;;;;;;;26.37;10.03;;;0.40;1.00;;;;;;5023953;28;20195;-84
2023/12/02 00:47:03;;;;;;;30.80;10.30;;;0.40;1.00;;;;;;5042864;28;20220;-84
2023/12/02 00:49:29;;;;;;;26.07;9.60;;;0.40;1.00;;;;;;5041166;28;20171;-84
2023/12/02 00:51:55;;;;;;;28.60;9.50;;;0.40;1.00;;;;;;5042451;28;20398;-84
2023/12/02 00:54:20;;;;;;;30.27;9.13;;;0.40;1.00;;;;;;5024235;28;20218;-84
2023/12/02 00:56:46;;;;;;;27.53;9.73;;;0.30;1.00;;;;;;5041644;28;20174;-84
2023/12/02 00:59:12;;;;;;;32.83;10.40;;;0.30;1.00;;;;;;5024010;28;20324;-84
2023/12/02 01:01:37;;;;;;;25.87;8.80;;;0.30;1.00;;;;;;5024121;28;20505;-84
2023/12/02 01:04:03;;;;;;;32.30;9.90;;;0.20;1.00;;;;;;5042106;28;20679;-84
2023/12/02 01:06:29;;;;;;;28.77;9.90;;;0.10;1.00;;;;;;5042094;28;20188;-84
2023/12/02 01:08:55;;;;;;;25.73;9.68;;;0.20;1.00;;;;;;5022814;28;20414;-84
2023/12/02 01:11:24;;;;;;;27.33;8.30;;;0.30;1.00;;;;;;5023802;28;20544;-84
2023/12/02 01:13:49;;;;;;;26.73;9.93;;;0.10;1.00;;;;;;5058402;22;20270;-84
2023/12/02 01:16:47;;;;;;;24.00;8.73;;;0.00;1.00;;;;;;5024576;28;20278;-84
2023/12/02 01:19:31;;;;;;;28.13;10.10;;;0.20;1.00;;;;;;5041009;28;20536;-84
2023/12/02 01:21:57;;;;;;;26.42;9.63;;;0.10;1.00;;;;;;5023284;28;20171;-84
2023/12/02 01:24:22;;;;;;;26.07;8.40;;;0.10;1.00;;;;;;5041904;28;20196;-83
2023/12/02 01:26:48;;;;;;;24.63;7.93;;;0.10;1.00;;;;;;5041296;28;20161;-84
2023/12/02 01:29:16;;;;;;;25.43;9.23;;;0.10;1.00;;;;;;5041555;28;20167;-84
2023/12/02 01:31:42;;;;;;;26.80;9.32;;;0.10;1.00;;;;;;5041438;28;20171;-84
2023/12/02 01:34:07;;;;;;;26.70;9.07;;;0.10;1.00;;;;;;5022627;28;20218;-84
2023/12/02 01:36:33;;;;;;;26.00;8.60;;;0.10;1.00;;;;;;5023514;28;20177;-84
2023/12/02 01:38:59;;;;;;;30.63;10.40;;;0.10;1.00;;;;;;5041799;28;20639;-83
2023/12/02 01:41:24;;;;;;;28.80;10.27;;;0.10;1.00;;;;;;5041042;28;20162;-84
2023/12/02 01:43:53;;;;;;;26.80;9.80;;;0.20;1.00;;;;;;5041690;28;20183;-84
2023/12/02 01:46:21;;;;;;;30.40;10.18;;;0.20;1.00;;;;;;5041117;28;20489;-84
2023/12/02 01:48:47;;;;;;;27.45;9.70;;;0.20;1.00;;;;;;5041366;28;20194;-84
2023/12/02 01:51:13;;;;;;;31.98;10.65;;;0.20;1.00;;;;;;5041406;28;20192;-83
2023/12/02 01:53:39;;;;;;;25.63;9.30;;;0.10;1.00;;;;;;5040892;28;20188;-84
2023/12/02 01:56:05;;;;;;;26.87;8.33;;;0.00;1.00;;;;;;5040600;28;20171;-84
2023/12/02 01:58:31;;;;;;;27.88;9.57;;;-0.20;1.00;;;;;;5040337;28;20451;-84
2023/12/02 02:00:57;;;;;;;24.10;8.67;;;-0.10;1.00;;;;;;5022521;28;20631;-84
2023/12/02 02:03:23;;;;;;;27.70;9.30;;;-0.20;1.00;;;;;;5022712;28;20501;-84
2023/12/02 02:05:48;;;;;;;28.43;9.80;;;-0.20;1.00;;;;;;5040866;28;20795;-84
2023/12/02 02:08:14;;;;;;;28.20;10.10;;;-0.30;1.00;;;;;;5039915;28;20254;-84
2023/12/02 02:10:40;;;;;;;28.47;9.90;;;-0.30;1.00;;;;;;5022460;28;20213;-83
2023/12/02 02:13:06;;;;;;;30.00;9.53;;;-0.30;1.00;;;;;;5040425;28;20166;-84
2023/12/02 02:15:32;;;;;;;26.55;8.77;;;-0.40;1.00;;;;;;5021877;28;20185;-83
2023/12/02 02:17:57;;;;;;;26.30;9.00;;;-0.30;1.00;;;;;;5022942;28;20167;-83
2023/12/02 02:20:23;;;;;;;28.50;9.07;;;-0.30;1.00;;;;;;5038565;28;20551;-84
2023/12/02 02:22:49;;;;;;;28.27;11.17;;;-0.40;1.00;;;;;;5041162;28;20166;-83
2023/12/02 02:25:14;;;;;;;24.30;7.97;;;-0.40;1.00;;;;;;5040918;28;20260;-83
2023/12/02 02:27:40;;;;;;;25.57;8.30;;;-0.20;1.00;;;;;;5040627;28;20159;-83
2023/12/02 02:30:07;;;;;;;27.20;9.67;;;-0.20;1.00;;;;;;5041349;28;20166;-83
2023/12/02 02:32:32;;;;;;;27.45;9.35;;;-0.30;1.00;;;;;;5042309;28;20166;-83
2023/12/02 02:34:58;;;;;;;26.23;9.50;;;-0.20;1.00;;;;;;5041515;28;20701;-83
2023/12/02 02:37:24;;;;;;;30.20;10.00;;;0.00;1.00;;;;;;5041739;28;20166;-83
2023/12/02 02:39:50;;;;;;;28.70;8.70;;;0.00;1.00;;;;;;5024059;28;20244;-84
2023/12/02 02:42:16;;;;;;;27.70;10.00;;;0.00;1.00;;;;;;5041248;28;20465;-84
2023/12/02 02:44:41;;;;;;;26.92;9.10;;;-0.30;1.00;;;;;;5023150;28;20281;-83
2023/12/02 02:47:07;;;;;;;27.47;10.57;;;-0.30;1.00;;;;;;5041701;28;20205;-84
2023/12/02 02:49:33;;;;;;;27.37;9.80;;;-0.10;1.00;;;;;;5040938;28;20173;-84
2023/12/02 02:52:01;;;;;;;26.13;10.00;;;-0.20;1.00;;;;;;5041313;28;20496;-83
2023/12/02 02:54:27;;;;;;;26.77;9.65;;;-0.20;1.00;;;;;;5041537;28;20190;-83
2023/12/02 02:56:54;;;;;;;24.27;8.27;;;-0.20;1.00;;;;;;5041392;28;20198;-83
2023/12/02 02:59:19;;;;;;;25.40;9.30;;;-0.10;1.00;;;;;;5041506;28;20186;-84
2023/12/02 03:01:47;;;;;;;24.63;8.63;;;0.00;1.00;;;;;;5023025;28;20509;-84
2023/12/02 03:04:13;;;;;;;32.05;9.38;;;0.10;1.00;;;;;;5041432;28;20197;-84
2023/12/02 03:06:39;;;;;;;28.42;8.85;;;0.10;1.00;;;;;;5024308;28;20178;-84
2023/12/02 03:09:06;;;;;;;27.90;8.93;;;0.10;1.00;;;;;;5040585;28;20177;-84
2023/12/02 03:11:32;;;;;;;24.10;8.43;;;0.20;1.00;;;;;;5040725;28;20192;-84
2023/12/02 03:13:58;;;;;;;26.55;8.60;;;0.20;1.00;;;;;;5041445;28;20254;-84
2023/12/02 03:16:23;;;;;;;28.57;8.97;;;0.20;1.00;;;;;;5041081;28;20235;-84
2023/12/02 03:18:49;;;;;;;28.80;9.33;;;0.20;1.00;;;;;;5042139;28;20438;-84
2023/12/02 03:21:15;;;;;;;26.20;8.40;;;0.20;1.00;;;;;;5041527;28;20623;-83
2023/12/02 03:23:40;;;;;;;27.97;9.47;;;0.20;1.00;;;;;;5022487;28;20189;-83
2023/12/02 03:26:06;;;;;;;31.50;10.27;;;0.30;1.00;;;;;;5041497;28;20166;-83
2023/12/02 03:28:32;;;;;;;27.50;10.00;;;0.30;1.00;;;;;;5040999;28;20398;-83
2023/12/02 03:30:59;;;;;;;25.80;9.23;;;0.30;1.00;;;;;;5040446;28;20406;-83
2023/12/02 03:33:25;;;;;;;26.27;8.30;;;0.30;1.00;;;;;;5022504;28;20257;-83
2023/12/02 03:35:51;;;;;;;30.57;9.23;;;0.30;1.00;;;;;;5041159;28;20182;-84
2023/12/02 03:38:16;;;;;;;29.10;9.80;;;0.40;1.00;;;;;;5041338;28;20166;-83
2023/12/02 03:40:42;;;;;;;28.73;10.17;;;0.40;1.00;;;;;;5022687;28;20410;-84
2023/12/02 03:43:09;;;;;;;31.20;10.77;;;0.40;1.00;;;;;;5022943;28;20208;-84
2023/12/02 03:45:34;;;;;;;30.42;10.48;;;0.30;1.00;;;;;;5023618;28;20417;-84
2023/12/02 03:48:00;;;;;;;30.13;9.60;;;0.30;1.00;;;;;;5040969;28;20171;-84
2023/12/02 03:50:26;;;;;;;28.03;8.90;;;0.30;1.00;;;;;;5023126;28;20170;-84
2023/12/02 03:52:52;;;;;;;26.50;9.23;;;0.30;1.00;;;;;;5041652;28;20176;-84
2023/12/02 03:55:18;;;;;;;26.07;9.23;;;0.30;1.00;;;;;;5040827;28;20190;-84
2023/12/02 03:57:44;;;;;;;24.42;8.40;;;0.30;1.00;;;;;;5040859;28;20182;-83
2023/12/02 04:00:13;;;;;;;28.08;9.30;;;0.30;1.00;;;;;;5023065;28;20195;-84
2023/12/02 04:02:40;;;;;;;25.92;9.50;;;0.40;1.00;;;;;;5041919;28;20163;-84
2023/12/02 04:05:09;;;;;;;29.08;9.93;;;0.50;1.00;;;;;;5041773;28;20189;-84
2023/12/02 04:07:36;;;;;;;39.45;11.50;;;0.30;1.00;;;;;;5041624;28;20179;-84
2023/12/02 04:10:03;;;;;;;27.30;9.93;;;0.30;1.00;;;;;;5041192;28;20203;-83
2023/12/02 04:12:29;;;;;;;24.90;7.85;;;0.40;1.00;;;;;;5041177;28;20216;-84
2023/12/02 04:14:56;;;;;;;25.40;8.85;;;0.40;1.00;;;;;;5040980;28;20226;-83
2023/12/02 04:17:21;;;;;;;27.42;9.85;;;0.30;1.00;;;;;;5041589;28;20172;-84
2023/12/02 04:19:47;;;;;;;30.90;10.37;;;0.30;1.00;;;;;;5023294;28;20228;-84
2023/12/02 04:22:14;;;;;;;33.83;12.20;;;0.30;1.00;;;;;;5041479;28;20159;-84
2023/12/02 04:24:39;;;;;;;26.05;8.77;;;0.40;1.00;;;;;;5041094;28;20483;-84
2023/12/02 04:27:07;;;;;;;27.10;8.83;;;0.40;1.00;;;;;;5041959;28;20163;-84
2023/12/02 04:29:35;;;;;;;28.50;10.10;;;0.30;1.00;;;;;;5041155;28;20168;-84
2023/12/02 04:32:00;;;;;;;28.92;9.88;;;0.30;1.00;;;;;;5023824;28;20254;-84
2023/12/02 04:34:26;;;;;;;28.10;8.70;;;0.40;1.00;;;;;;5041710;28;20178;-84
2023/12/02 04:36:52;;;;;;;27.90;9.77;;;0.40;1.00;;;;;;5040900;28;20170;-84
2023/12/02 04:39:17;;;;;;;27.10;9.10;;;0.40;1.00;;;;;;5041301;28;20558;-84
2023/12/02 04:41:43;;;;;;;28.40;9.67;;;0.30;1.00;;;;;;5023416;28;20171;-84
2023/12/02 04:44:09;;;;;;;26.53;9.30;;;0.40;1.00;;;;;;5043100;28;20193;-83
2023/12/02 04:46:35;;;;;;;26.73;9.50;;;0.40;1.00;;;;;;5045031;28;20168;-84
2023/12/02 04:49:01;;;;;;;26.10;8.50;;;0.40;1.00;;;;;;5220431;22;20249;-83
2023/12/02 04:51:26;;;;;;;26.07;9.50;;;0.40;1.00;;;;;;5226166;22;20828;-84
2023/12/02 04:53:55;;;;;;;25.87;8.80;;;0.40;1.00;;;;;;5329322;22;20235;-83
2023/12/02 04:56:21;;;;;;;26.65;8.85;;;0.40;1.00;;;;;;5044448;28;20194;-83
2023/12/02 04:58:46;;;;;;;30.43;9.20;;;0.50;1.00;;;;;;5044519;28;20187;-82
2023/12/02 05:01:12;;;;;;;24.75;8.52;;;0.40;1.00;;;;;;5026543;28;20476;-83
2023/12/02 05:03:38;;;;;;;28.00;9.83;;;0.40;1.00;;;;;;5044714;28;20184;-83
2023/12/02 05:06:04;;;;;;;26.07;8.33;;;0.30;1.00;;;;;;5044080;28;20166;-83
2023/12/02 05:08:30;;;;;;;30.88;9.07;;;0.40;1.00;;;;;;5043282;28;20190;-83
2023/12/02 05:10:56;;;;;;;29.70;9.60;;;0.40;1.00;;;;;;5027293;28;20175;-83
2023/12/02 05:13:21;;;;;;;28.30;9.80;;;0.30;1.00;;;;;;5026843;28;20776;-82
2023/12/02 05:15:47;;;;;;;29.30;9.50;;;0.20;1.00;;;;;;5044325;28;20164;-83
2023/12/02 05:18:13;;;;;;;28.10;9.80;;;0.30;1.00;;;;;;5044739;28;20225;-82
2023/12/02 05:20:39;;;;;;;26.40;8.37;;;0.30;1.00;;;;;;5044196;28;20628;-83
2023/12/02 05:23:04;;;;;;;28.17;10.30;;;0.40;1.00;;;;;;5026841;28;20662;-83
2023/12/02 05:25:32;;;;;;;29.83;8.50;;;0.40;1.00;;;;;;5026059;28;20186;-83
2023/12/02 05:27:58;;;;;;;26.33;9.27;;;0.40;1.00;;;;;;5043254;28;20182;-83
2023/12/02 05:30:24;;;;;;;27.47;8.43;;;0.40;1.00;;;;;;5043410;28;20170;-83
2023/12/02 05:32:51;;;;;;;23.60;7.50;;;0.40;1.00;;;;;;5043870;28;20243;-83
2023/12/02 05:35:18;;;;;;;24.05;7.65;;;0.40;1.00;;;;;;5025084;28;20194;-83
2023/12/02 05:37:44;;;;;;;25.13;8.52;;;0.40;1.00;;;;;;5026261;28;20230;-82
2023/12/02 05:40:10;;;;;;;23.67;8.27;;;0.40;1.00;;;;;;5026139;28;20215;-83
2023/12/02 05:42:36;;;;;;;27.73;8.52;;;0.40;1.00;;;;;;5043453;28;20179;-82
2023/12/02 05:45:02;;;;;;;27.37;7.83;;;0.40;1.00;;;;;;5043523;28;20192;-83
2023/12/02 05:47:27;;;;;;;25.20;8.47;;;0.50;1.00;;;;;;5025818;28;20176;-82
2023/12/02 05:49:53;;;;;;;26.87;8.17;;;0.50;1.00;;;;;;5043252;28;20178;-83
2023/12/02 05:52:19;;;;;;;25.80;9.00;;;0.50;1.00;;;;;;5043741;28;20170;-83
2023/12/02 05:54:44;;;;;;;25.23;8.70;;;0.50;1.00;;;;;;5025427;28;20216;-83
2023/12/02 05:57:11;;;;;;;22.53;7.03;;;0.50;1.00;;;;;;5044078;28;20171;-83
2023/12/02 05:59:40;;;;;;;24.55;7.90;;;0.50;1.00;;;;;;5044068;28;20236;-83
2023/12/02 06:02:06;;;;;;;28.13;10.25;;;0.40;1.00;;;;;;5025362;28;20170;-83
2023/12/02 06:04:35;;;;;;;29.77;9.37;;;0.40;1.00;;;;;;5026548;28;20190;-83
2023/12/02 06:07:00;;;;;;;27.40;9.48;;;0.40;1.00;;;;;;5043323;28;20421;-83
2023/12/02 06:09:26;;;;;;;27.67;9.30;;;0.50;1.00;;;;;;5025687;28;20540;-83
2023/12/02 06:11:52;;;;;;;26.43;8.93;;;0.60;1.00;;;;;;5042398;28;20174;-83
2023/12/02 06:14:17;;;;;;;28.80;9.07;;;0.60;1.00;;;;;;5042579;28;20191;-82
2023/12/02 06:16:43;;;;;;;27.73;9.00;;;0.50;1.00;;;;;;5043176;28;20173;-83
2023/12/02 06:19:09;;;;;;;25.43;8.60;;;0.50;1.00;;;;;;5043412;28;20271;-83
2023/12/02 06:21:37;;;;;;;27.90;8.90;;;0.60;1.00;;;;;;5043694;28;20520;-83
2023/12/02 06:24:04;;;;;;;23.88;8.63;;;0.50;1.00;;;;;;5043714;28;20258;-83
2023/12/02 06:26:30;;;;;;;27.77;10.40;;;0.50;1.00;;;;;;5043180;28;20163;-83
2023/12/02 06:28:56;;;;;;;25.23;8.93;;;0.50;1.00;;;;;;5042342;28;20198;-83
2023/12/02 06:31:21;;;;;;;29.10;9.93;;;0.50;1.00;;;;;;5025794;28;20166;-83
2023/12/02 06:33:47;;;;;;;27.90;9.87;;;0.40;1.00;;;;;;5024374;28;20799;-82
2023/12/02 06:36:13;;;;;;;27.50;9.80;;;0.40;1.00;;;;;;5042690;28;20186;-83
2023/12/02 06:38:39;;;;;;;28.07;10.40;;;0.40;1.00;;;;;;5025482;28;20456;-83
2023/12/02 06:41:05;;;;;;;26.57;9.83;;;0.30;1.00;;;;;;5042502;28;20241;-83
2023/12/02 06:43:31;;;;;;;24.00;8.63;;;0.40;1.00;;;;;;5025343;28;20494;-83
2023/12/02 06:45:57;;;;;;;22.30;7.57;;;0.40;1.00;;;;;;5024396;28;20198;-83
2023/12/02 06:48:22;;;;;;;26.37;8.53;;;0.40;1.00;;;;;;5042506;28;20407;-83
2023/12/02 06:50:51;;;;;;;28.13;9.60;;;0.40;1.00;;;;;;5042743;28;20423;-83
2023/12/02 06:53:16;;;;;;;25.70;8.85;;;0.40;1.00;;;;;;5025188;28;20162;-83
2023/12/02 06:55:42;;;;;;;25.57;9.00;;;0.30;1.00;;;;;;5043516;28;20190;-83
2023/12/02 06:58:08;;;;;;;23.15;8.35;;;0.30;1.00;;;;;;5042635;28;20194;-83
2023/12/02 07:00:35;;;;;;;28.90;8.70;;;0.40;1.00;;;;;;5024532;28;20690;-83
2023/12/02 07:03:01;;;;;;;26.75;9.48;;;0.30;1.00;;;;;;5041209;28;20643;-82
2023/12/02 07:05:26;;;;;;;26.00;10.53;;;0.40;1.00;;;;;;5022843;28;20191;-82
2023/12/02 07:07:52;;;;;;;26.30;10.07;;;0.20;1.00;;;;;;5041326;28;20409;-82
2023/12/02 07:10:18;;;;;;;28.37;9.90;;;0.20;1.00;;;;;;5022930;28;20177;-82
2023/12/02 07:12:44;;;;;;;28.92;10.00;;;0.10;1.00;;;;;;5040907;28;20405;-83
2023/12/02 07:15:11;;;;;;;29.57;10.50;;;0.10;1.00;;;;;;5042517;28;20185;-82
2023/12/02 07:17:37;;;;;;;27.77;10.05;;;0.10;1.00;;;;;;5024317;28;20413;-82
2023/12/02 07:20:06;;;;;;;26.73;10.03;;;0.20;1.00;;;;;;5041233;28;20182;-82
2023/12/02 07:22:32;;;;;;;29.38;9.82;;;0.10;1.00;;;;;;5040202;28;20482;-82
2023/12/02 07:25:00;;;;;;;29.60;9.33;;;0.10;1.00;;;;;;5041438;28;20211;-82
2023/12/02 07:27:26;;;;;;;30.90;11.07;;;0.10;1.00;;;;;;5041620;28;20160;-83
2023/12/02 07:30:18;;;;;;;29.07;10.63;;;0.10;1.00;;;;;;5042728;28;20223;-82
2023/12/02 07:32:50;;;;;;;27.25;8.80;;;0.20;1.00;;;;;;5004821;28;20191;-82
2023/12/02 07:35:16;;;;;;;25.95;9.35;;;0.20;1.00;;;;;;5041459;28;20186;-82
2023/12/02 07:37:43;;;;;;;26.90;8.85;;;0.30;1.00;;;;;;5040737;28;20177;-82
2023/12/02 07:40:09;;;;;;;29.02;10.30;;;0.20;1.00;;;;;;5040920;28;20214;-82
2023/12/02 07:42:35;;;;;;;26.05;8.80;;;0.10;1.00;;;;;;5023404;28;20193;-82
2023/12/02 07:45:01;;;;;;;26.83;9.97;;;0.10;1.00;;;;;;5041223;28;20187;-82
2023/12/02 07:47:32;;;;;;;29.40;10.43;;;0.10;1.00;;;;;;5023971;28;20181;-82
2023/12/02 07:50:07;;;;;;;26.60;9.95;;;0.10;1.00;;;;;;5039971;28;20168;-82
2023/12/02 07:52:36;;;;;;;31.40;10.70;;;0.00;1.00;;;;;;5039932;28;20252;-83
2023/12/02 07:55:05;;;;;;;30.80;11.25;;;0.00;1.00;;;;;;5023111;28;20254;-82
2023/12/02 07:57:31;;;;;;;29.75;12.25;;;0.00;1.00;;;;;;5023400;28;20181;-82
2023/12/02 07:59:56;;;;;;;28.17;9.53;;;0.00;1.00;;;;;;5024093;28;20194;-82
2023/12/02 08:02:22;;;;;;;31.93;11.07;;;0.00;1.00;;;;;;5039981;28;20163;-82
2023/12/02 08:04:51;;;;;;;32.13;9.93;;;0.00;1.00;;;;;;5024043;28;20193;-84
2023/12/02 08:07:17;;;;;;;29.02;10.15;;;0.00;1.00;;;;;;5040685;28;20193;-82
2023/12/02 08:09:43;;;;;;;27.95;9.90;;;0.00;1.00;;;;;;5022646;28;20182;-83
2023/12/02 08:12:12;;;;;;;29.23;11.47;;;0.00;1.00;;;;;;5041076;28;20181;-83
2023/12/02 08:15:02;;;;;;;26.75;10.18;;;0.00;1.00;;;;;;5041759;28;20958;-83
2023/12/02 08:17:26;;;;;;;26.92;10.25;;;0.10;1.00;;;;;;5042398;28;20179;-83
2023/12/02 08:19:58;;;;;;;27.03;10.50;;;0.10;1.00;;;;;;5025855;28;20213;-83
2023/12/02 08:22:24;;;;;;;29.65;11.48;;;0.20;1.00;;;;;;5046345;28;20465;-83
2023/12/02 08:24:56;;;;;;;27.97;9.67;;;0.30;1.00;;;;;;5046388;28;20186;-83
2023/12/02 08:27:22;;;;;;;28.35;10.18;;;0.30;1.00;;;;;;5046115;28;20431;-83
2023/12/02 08:29:53;;;;;;;31.27;10.93;;;0.30;1.00;;;;;;5045872;28;20190;-83
2023/12/02 08:32:19;;;;;;;29.63;10.95;;;0.30;1.00;;;;;;5046269;28;20391;-82
2023/12/02 08:34:45;;;;;;;29.95;8.80;;;0.30;1.00;;;;;;5027988;28;20237;-83
2023/12/02 08:37:11;;;;;;;28.30;10.67;;;0.40;1.00;;;;;;5028466;28;20180;-83
2023/12/02 08:39:42;;;;;;;32.63;11.43;;;0.50;1.00;;;;;;5046517;28;20339;-83
2023/12/02 08:42:08;;;;;;;32.30;10.77;;;0.50;1.00;;;;;;5045785;28;20191;-82
2023/12/02 08:44:34;;;;;;;32.73;10.33;;;0.50;1.00;;;;;;5027840;28;20186;-83
2023/12/02 08:47:10;;;;;;;31.93;11.03;;;0.50;1.00;;;;;;5046072;28;20164;-83
2023/12/02 08:49:36;;;;;;;33.10;10.27;;;0.60;1.00;;;;;;5028258;28;20221;-83
2023/12/02 08:52:02;;;;;;;26.03;10.07;;;0.60;1.00;;;;;;5045719;28;20204;-83
2023/12/02 08:54:28;;;;;;;27.92;10.07;;;0.70;1.00;;;;;;5045390;28;20449;-83
2023/12/02 08:56:57;;;;;;;29.40;11.40;;;0.60;1.00;;;;;;5045548;28;20162;-83
2023/12/02 08:59:23;;;;;;;29.55;9.73;;;0.70;1.00;;;;;;5027595;28;20187;-83
2023/12/02 09:01:51;;;;;;;31.53;11.37;;;0.70;1.00;;;;;;5045584;28;20187;-83
2023/12/02 09:04:16;;;;;;;31.85;10.57;;;0.80;1.00;;;;;;5174492;22;20555;-85
2023/12/02 09:06:45;;;;;;;30.80;11.80;;;0.70;1.00;;;;;;5097761;22;20284;-84
2023/12/02 09:09:14;;;;;;;30.10;11.05;;;0.70;1.00;;;;;;5045270;28;20152;-84
2023/12/02 09:11:42;;;;;;;27.10;9.05;;;0.80;1.00;;;;;;5045169;28;20167;-84
2023/12/02 09:14:13;;;;;;;30.80;11.05;;;0.70;1.00;;;;;;5044178;28;20188;-84
2023/12/02 09:16:46;;;;;;;33.40;11.73;;;0.70;1.00;;;;;;5045088;28;20166;-84
2023/12/02 09:19:30;;;;;;;30.20;11.07;;;0.70;1.00;;;;;;5026769;28;20257;-84
2023/12/02 09:21:59;;;;;;;30.42;10.88;;;0.70;1.00;;;;;;5027369;28;20167;-84
2023/12/02 09:24:38;;;;;;;33.20;11.68;;;0.80;1.00;;;;;;5026525;28;20190;-84
2023/12/02 09:27:30;;;;;;;30.55;10.85;;;0.70;1.00;;;;;;5026419;28;20220;-84
2023/12/02 09:29:58;;;;;;;32.40;11.63;;;0.70;1.00;;;;;;5026011;28;20182;-84
2023/12/02 09:32:25;;;;;;;32.08;12.70;;;0.90;1.00;;;;;;5044870;28;20169;-84
2023/12/02 09:35:00;;;;;;;30.30;11.43;;;0.90;1.00;;;;;;5045162;28;20255;-84
2023/12/02 09:37:34;;;;;;;31.83;11.38;;;0.80;1.00;;;;;;5044481;28;20161;-84
2023/12/02 09:40:23;;;;;;;34.75;13.10;;;0.90;1.00;;;;;;5044042;28;20193;-84
2023/12/02 09:42:55;;;;;;;28.20;10.43;;;0.80;1.00;;;;;;4988898;28;20623;-84
2023/12/02 09:45:22;;;;;;;34.38;12.18;;;0.80;1.00;;;;;;5044757;28;20246;-84
2023/12/02 09:48:20;;;;;;;33.17;13.57;;;1.00;1.00;;;;;;5044359;28;20171;-84
2023/12/02 09:50:58;;;;;;;32.33;11.50;;;0.90;1.00;;;;;;5016731;28;20198;-84
2023/12/02 09:53:49;;;;;;;32.83;11.05;;;0.90;1.00;;;;;;5044558;28;20162;-84
2023/12/02 09:56:20;;;;;;;33.50;12.55;;;0.90;1.00;;;;;;5043562;28;20571;-84
2023/12/02 09:58:46;;;;;;;30.65;11.02;;;0.90;1.00;;;;;;5043649;28;20149;-84
2023/12/02 10:02:02;;;;;;;32.80;12.48;;;0.90;1.00;;;;;;5042419;28;20172;-84
2023/12/02 10:04:39;;;;;;;28.48;10.25;;;1.00;1.00;;;;;;5039274;28;20199;-84
2023/12/02 10:07:34;;;;;;;34.08;11.68;;;1.00;1.00;;;;;;5042724;28;20205;-84
2023/12/02 10:10:32;;;;;;;30.15;11.32;;;1.10;1.00;;;;;;5022991;28;20652;-83
2023/12/02 10:13:04;;;;;;;28.60;9.70;;;1.10;1.00;;;;;;5028899;28;20213;-84
2023/12/02 10:15:34;;;;;;;32.60;12.23;;;1.00;1.00;;;;;;5042303;28;20187;-84
2023/12/02 10:18:14;;;;;;;29.70;10.63;;;1.00;1.00;;;;;;5025237;28;20235;-83
2023/12/02 10:20:44;;;;;;;30.20;9.07;;;1.00;1.00;;;;;;5022955;28;20191;-83
2023/12/02 10:23:25;;;;;;;29.48;11.65;;;0.90;1.00;;;;;;5041158;28;20152;-83
2023/12/02 10:26:05;;;;;;;29.52;11.50;;;1.00;1.00;;;;;;5023044;28;20155;-83
2023/12/02 10:28:52;;;;;;;28.08;10.75;;;1.10;1.00;;;;;;5041557;28;20147;-83
2023/12/02 10:31:28;;;;;;;28.98;11.05;;;1.10;1.00;;;;;;5021885;28;20544;-83
2023/12/02 10:34:03;;;;;;;29.55;11.85;;;1.00;1.00;;;;;;5040004;28;20186;-83
2023/12/02 10:36:33;;;;;;;34.67;12.18;;;1.00;1.00;;;;;;5023091;28;20172;-83
2023/12/02 10:39:09;;;;;;;27.10;10.27;;;1.00;1.00;;;;;;5039667;28;20190;-83
2023/12/02 10:41:47;;;;;;;29.13;10.82;;;0.80;1.00;;;;;;5039025;28;20150;-83
2023/12/02 10:44:19;;;;;;;28.05;10.48;;;0.90;1.00;;;;;;5039698;28;20682;-83
2023/12/02 10:46:45;;;;;;;30.42;11.32;;;1.00;1.00;;;;;;5039538;28;20580;-83
2023/12/02 10:49:13;;;;;;;31.33;11.02;;;1.10;1.00;;;;;;5038888;28;20170;-83
2023/12/02 10:51:41;;;;;;;30.10;11.00;;;1.00;1.00;;;;;;5022278;28;20177;-83
2023/12/02 10:54:12;;;;;;;28.40;11.13;;;0.90;1.00;;;;;;5020663;28;20191;-83
2023/12/02 10:56:39;;;;;;;35.13;12.85;;;0.90;1.00;;;;;;5040354;28;20154;-83
2023/12/02 10:59:08;;;;;;;26.65;9.73;;;0.90;1.00;;;;;;5039794;28;20185;-83
2023/12/02 11:02:23;;;;;;;30.88;11.10;;;0.90;1.00;;;;;;5040681;28;20250;-83
2023/12/02 11:05:19;;;;;;;32.05;10.88;;;1.00;1.00;;;;;;5037878;28;20629;-83
2023/12/02 11:07:50;;;;;;;30.27;10.35;;;1.10;1.00;;;;;;5018670;28;20191;-83
2023/12/02 11:10:35;;;;;;;30.20;10.65;;;1.30;1.00;;;;;;5040074;28;20525;-83
2023/12/02 11:13:04;;;;;;;27.65;9.35;;;1.30;1.00;;;;;;5020688;28;20163;-83
2023/12/02 11:15:48;;;;;;;29.90;12.43;;;1.20;1.00;;;;;;5038809;28;20183;-83
2023/12/02 11:18:28;;;;;;;32.20;13.50;;;1.30;1.00;;;;;;5038299;28;20234;-83
2023/12/02 11:21:03;;;;;;;32.95;9.50;;;1.30;1.00;;;;;;5022976;28;20201;-83
2023/12/02 11:23:41;;;;;;;27.35;10.85;;;1.20;1.00;;;;;;5022320;28;20253;-83
2023/12/02 11:26:18;;;;;;;24.15;8.60;;;1.20;1.00;;;;;;5039488;28;20151;-83
2023/12/02 11:29:07;;;;;;;30.30;8.75;;;1.10;1.00;;;;;;5021648;28;20181;-83
2023/12/02 11:31:33;;;;;;;27.90;8.48;;;1.10;1.00;;;;;;5022039;28;20176;-83
2023/12/02 11:34:32;;;;;;;26.92;9.48;;;1.10;1.00;;;;;;5040122;28;20616;-83
2023/12/02 11:37:16;;;;;;;30.90;10.32;;;1.20;1.00;;;;;;5040429;28;20205;-83
2023/12/02 11:40:12;;;;;;;30.88;8.50;;;1.40;1.00;;;;;;5021945;28;20284;-83
2023/12/02 11:42:56;;;;;;;25.23;8.90;;;1.60;1.00;;;;;;5022252;28;20181;-83
2023/12/02 11:45:29;;;;;;;24.45;8.18;;;1.70;1.00;;;;;;5040053;28;20223;-84
2023/12/02 11:48:11;;;;;;;22.35;8.23;;;1.70;1.00;;;;;;5040105;28;20154;-83
2023/12/02 11:50:58;;;;;;;25.83;8.77;;;1.80;1.00;;;;;;5022751;28;20180;-83
2023/12/02 11:53:55;;;;;;;24.45;8.55;;;1.70;1.00;;;;;;5021631;28;20166;-83
2023/12/02 11:56:23;;;;;;;24.30;7.53;;;1.80;1.00;;;;;;5039459;28;20145;-83
2023/12/02 11:58:55;;;;;;;25.55;8.02;;;1.70;1.00;;;;;;5039438;28;20213;-83
2023/12/02 12:01:49;;;;;;;28.17;8.55;;;1.60;1.00;;;;;;5039782;28;20597;-83
2023/12/02 12:04:24;;;;;;;22.02;7.80;;;1.60;1.00;;;;;;5039719;28;20258;-83
2023/12/02 12:07:27;;;;;;;24.20;7.68;;;1.70;1.00;;;;;;5021445;28;20178;-83
2023/12/02 12:10:03;;;;;;;38.05;12.80;;;1.70;1.00;;;;;;5039178;28;20173;-83
2023/12/02 12:12:32;;;;;;;40.25;10.38;;;1.80;1.00;;;;;;5021978;28;20228;-83
2023/12/02 12:15:01;;;;;;;27.83;9.32;;;1.90;1.00;;;;;;5021535;28;20203;-83
2023/12/02 12:17:27;;;;;;;24.88;8.18;;;1.90;1.00;;;;;;5038549;28;20164;-83
2023/12/02 12:19:54;;;;;;;26.92;9.40;;;1.80;1.00;;;;;;5039150;28;20684;-83
2023/12/02 12:22:20;;;;;;;29.25;10.20;;;1.70;1.00;;;;;;5021564;28;20606;-83
2023/12/02 12:24:46;;;;;;;29.00;10.00;;;1.70;1.00;;;;;;5038593;28;20210;-83
2023/12/02 12:27:12;;;;;;;25.58;9.45;;;1.50;1.00;;;;;;5039088;28;20173;-83
2023/12/02 12:29:53;;;;;;;27.63;8.80;;;1.60;1.00;;;;;;5038294;28;20180;-83
2023/12/02 12:32:19;;;;;;;22.70;8.00;;;1.50;1.00;;;;;;5021452;28;20179;-83
2023/12/02 12:34:45;;;;;;;29.55;10.55;;;1.50;1.00;;;;;;5019250;28;20191;-83
2023/12/02 12:37:16;;;;;;;30.65;11.88;;;1.60;1.00;;;;;;5038007;28;20226;-83
2023/12/02 12:39:44;;;;;;;31.48;12.23;;;1.60;1.00;;;;;;5020258;28;20269;-83
2023/12/02 12:42:10;;;;;;;30.00;12.45;;;1.60;1.00;;;;;;5020406;28;20539;-83
2023/12/02 12:44:40;;;;;;;32.90;12.07;;;1.70;1.00;;;;;;5038632;28;20180;-83
2023/12/02 12:47:09;;;;;;;36.67;13.30;;;1.60;1.00;;;;;;5038425;28;20186;-83
2023/12/02 12:49:40;;;;;;;33.90;11.77;;;1.40;1.00;;;;;;5020479;28;20616;-83
2023/12/02 12:52:15;;;;;;;29.45;11.40;;;1.50;1.00;;;;;;5038105;28;20180;-83
2023/12/02 12:54:58;;;;;;;28.63;10.82;;;1.50;1.00;;;;;;5039114;28;20182;-84
2023/12/02 12:57:58;;;;;;;30.40;12.25;;;1.40;1.00;;;;;;5038924;28;20151;-84
2023/12/02 13:00:27;;;;;;;31.15;12.60;;;1.40;1.00;;;;;;4995705;28;20223;-83
2023/12/02 13:03:28;;;;;;;35.10;13.15;;;1.40;1.00;;;;;;5020968;28;20190;-84
2023/12/02 13:06:14;;;;;;;30.55;12.43;;;1.40;1.00;;;;;;5042224;28;20160;-84
2023/12/02 13:09:12;;;;;;;29.60;10.88;;;1.30;1.00;;;;;;5041155;28;20156;-84
2023/12/02 13:12:11;;;;;;;29.20;10.90;;;1.20;1.00;;;;;;5041318;28;20632;-84